sensor_id;sensor_type;location;lat;lon;timestamp;temperature;humidity
38325;DHT22;24126;52.672;13.622;2024-01-25T00:02:04;12.20;70.80
38325;DHT22;24126;52.672;13.622;2024-01-25T00:04:32;12.20;70.70
38325;DHT22;24126;52.672;13.622;2024-01-25T00:06:59;12.30;70.70
38325;DHT22;24126;52.672;13.622;2024-01-25T00:09:26;12.30;70.60
38325;DHT22;24126;52.672;13.622;2024-01-25T00:11:53;12.30;70.30
38325;DHT22;24126;52.672;13.622;2024-01-25T00:14:20;12.30;70.30
38325;DHT22;24126;52.672;13.622;2024-01-25T00:16:47;12.30;70.20
38325;DHT22;24126;52.672;13.622;2024-01-25T00:19:19;12.30;70.20
38325;DHT22;24126;52.672;13.622;2024-01-25T00:21:46;12.30;70.20
38325;DHT22;24126;52.672;13.622;2024-01-25T00:24:13;12.30;70.20
38325;DHT22;24126;52.672;13.622;2024-01-25T00:26:41;12.30;70.20
38325;DHT22;24126;52.672;13.622;2024-01-25T00:29:08;12.30;70.10
38325;DHT22;24126;52.672;13.622;2024-01-25T00:31:35;12.30;70.10
38325;DHT22;24126;52.672;13.622;2024-01-25T00:34:02;12.30;70.30
38325;DHT22;24126;52.672;13.622;2024-01-25T00:36:30;12.30;70.30
38325;DHT22;24126;52.672;13.622;2024-01-25T00:38:57;12.30;70.40
38325;DHT22;24126;52.672;13.622;2024-01-25T00:41:24;12.30;70.40
38325;DHT22;24126;52.672;13.622;2024-01-25T00:43:52;12.30;70.40
38325;DHT22;24126;52.672;13.622;2024-01-25T00:46:19;12.30;70.40
38325;DHT22;24126;52.672;13.622;2024-01-25T00:48:46;12.30;70.30
38325;DHT22;24126;52.672;13.622;2024-01-25T00:51:14;12.30;70.30
38325;DHT22;24126;52.672;13.622;2024-01-25T00:53:42;12.30;70.30
38325;DHT22;24126;52.672;13.622;2024-01-25T00:56:10;12.30;70.10
38325;DHT22;24126;52.672;13.622;2024-01-25T00:58:37;12.20;70.20
38325;DHT22;24126;52.672;13.622;2024-01-25T01:01:04;12.20;70.30
38325;DHT22;24126;52.672;13.622;2024-01-25T01:03:32;12.30;70.30
38325;DHT22;24126;52.672;13.622;2024-01-25T01:05:59;12.30;70.40
38325;DHT22;24126;52.672;13.622;2024-01-25T01:08:27;12.30;70.20
38325;DHT22;24126;52.672;13.622;2024-01-25T01:10:54;12.30;70.20
38325;DHT22;24126;52.672;13.622;2024-01-25T01:13:21;12.30;70.10
38325;DHT22;24126;52.672;13.622;2024-01-25T01:15:48;12.30;70.20
38325;DHT22;24126;52.672;13.622;2024-01-25T01:18:16;12.20;70.00
38325;DHT22;24126;52.672;13.622;2024-01-25T01:20:43;12.20;70.00
38325;DHT22;24126;52.672;13.622;2024-01-25T01:23:10;12.30;70.00
38325;DHT22;24126;52.672;13.622;2024-01-25T01:25:37;12.30;70.00
38325;DHT22;24126;52.672;13.622;2024-01-25T01:28:05;12.30;69.90
38325;DHT22;24126;52.672;13.622;2024-01-25T01:30:32;12.30;69.90
38325;DHT22;24126;52.672;13.622;2024-01-25T01:32:59;12.30;69.80
38325;DHT22;24126;52.672;13.622;2024-01-25T01:35:26;12.30;70.40
38325;DHT22;24126;52.672;13.622;2024-01-25T01:37:57;12.30;69.60
38325;DHT22;24126;52.672;13.622;2024-01-25T01:40:24;12.30;69.80
38325;DHT22;24126;52.672;13.622;2024-01-25T01:42:51;12.30;69.80
38325;DHT22;24126;52.672;13.622;2024-01-25T01:45:18;12.30;69.80
38325;DHT22;24126;52.672;13.622;2024-01-25T01:47:45;12.30;69.70
38325;DHT22;24126;52.672;13.622;2024-01-25T01:50:13;12.30;69.50
38325;DHT22;24126;52.672;13.622;2024-01-25T01:52:40;12.30;69.50
38325;DHT22;24126;52.672;13.622;2024-01-25T01:55:08;12.30;69.50
38325;DHT22;24126;52.672;13.622;2024-01-25T01:57:35;12.30;69.50
38325;DHT22;24126;52.672;13.622;2024-01-25T02:00:03;12.30;69.50
38325;DHT22;24126;52.672;13.622;2024-01-25T02:02:37;12.30;69.40
38325;DHT22;24126;52.672;13.622;2024-01-25T02:05:06;12.30;69.50
38325;DHT22;24126;52.672;13.622;2024-01-25T02:07:33;12.30;69.50
38325;DHT22;24126;52.672;13.622;2024-01-25T02:10:00;12.30;69.60
38325;DHT22;24126;52.672;13.622;2024-01-25T02:12:27;12.40;69.70
38325;DHT22;24126;52.672;13.622;2024-01-25T02:14:55;12.30;69.60
38325;DHT22;24126;52.672;13.622;2024-01-25T02:17:24;12.30;69.80
38325;DHT22;24126;52.672;13.622;2024-01-25T02:19:51;12.30;69.90
38325;DHT22;24126;52.672;13.622;2024-01-25T02:22:18;12.30;70.00
38325;DHT22;24126;52.672;13.622;2024-01-25T02:24:46;12.20;69.80
38325;DHT22;24126;52.672;13.622;2024-01-25T02:27:13;12.20;69.80
38325;DHT22;24126;52.672;13.622;2024-01-25T02:29:40;12.20;69.90
38325;DHT22;24126;52.672;13.622;2024-01-25T02:32:07;12.20;69.90
38325;DHT22;24126;52.672;13.622;2024-01-25T02:34:34;12.20;69.90
38325;DHT22;24126;52.672;13.622;2024-01-25T02:37:01;12.20;69.90
38325;DHT22;24126;52.672;13.622;2024-01-25T02:39:29;12.20;69.80
38325;DHT22;24126;52.672;13.622;2024-01-25T02:41:56;12.20;69.90
38325;DHT22;24126;52.672;13.622;2024-01-25T02:44:23;12.20;69.70
38325;DHT22;24126;52.672;13.622;2024-01-25T02:46:50;12.20;69.60
38325;DHT22;24126;52.672;13.622;2024-01-25T02:49:18;12.20;69.60
38325;DHT22;24126;52.672;13.622;2024-01-25T02:51:45;12.20;69.60
38325;DHT22;24126;52.672;13.622;2024-01-25T02:54:12;12.20;69.50
38325;DHT22;24126;52.672;13.622;2024-01-25T02:56:39;12.20;69.50
38325;DHT22;24126;52.672;13.622;2024-01-25T02:59:06;12.20;69.40
38325;DHT22;24126;52.672;13.622;2024-01-25T03:01:40;12.20;69.60
38325;DHT22;24126;52.672;13.622;2024-01-25T03:04:07;12.20;69.40
38325;DHT22;24126;52.672;13.622;2024-01-25T03:06:34;12.20;69.40
38325;DHT22;24126;52.672;13.622;2024-01-25T03:09:03;12.10;69.30
38325;DHT22;24126;52.672;13.622;2024-01-25T03:11:31;12.10;69.40
38325;DHT22;24126;52.672;13.622;2024-01-25T03:13:58;12.20;69.30
38325;DHT22;24126;52.672;13.622;2024-01-25T03:16:25;12.20;69.40
38325;DHT22;24126;52.672;13.622;2024-01-25T03:18:52;12.20;69.40
38325;DHT22;24126;52.672;13.622;2024-01-25T03:21:20;12.20;69.40
38325;DHT22;24126;52.672;13.622;2024-01-25T03:23:47;12.20;69.50
38325;DHT22;24126;52.672;13.622;2024-01-25T03:26:14;12.20;69.40
38325;DHT22;24126;52.672;13.622;2024-01-25T03:28:41;12.10;69.30
38325;DHT22;24126;52.672;13.622;2024-01-25T03:31:08;12.10;69.40
38325;DHT22;24126;52.672;13.622;2024-01-25T03:33:35;12.10;69.50
38325;DHT22;24126;52.672;13.622;2024-01-25T03:36:03;12.10;69.50
38325;DHT22;24126;52.672;13.622;2024-01-25T03:38:30;12.10;69.50
38325;DHT22;24126;52.672;13.622;2024-01-25T03:40:57;12.10;69.50
38325;DHT22;24126;52.672;13.622;2024-01-25T03:43:25;12.10;69.50
38325;DHT22;24126;52.672;13.622;2024-01-25T03:45:52;12.10;69.50
38325;DHT22;24126;52.672;13.622;2024-01-25T03:48:19;12.10;69.40
38325;DHT22;24126;52.672;13.622;2024-01-25T03:50:47;12.10;69.40
38325;DHT22;24126;52.672;13.622;2024-01-25T03:53:15;12.10;69.40
38325;DHT22;24126;52.672;13.622;2024-01-25T03:55:42;12.10;69.30
38325;DHT22;24126;52.672;13.622;2024-01-25T03:58:11;12.20;69.40
38325;DHT22;24126;52.672;13.622;2024-01-25T04:00:38;12.10;69.20
38325;DHT22;24126;52.672;13.622;2024-01-25T04:03:05;12.10;69.10
38325;DHT22;24126;52.672;13.622;2024-01-25T04:05:32;12.10;69.10
38325;DHT22;24126;52.672;13.622;2024-01-25T04:07:59;12.10;69.20
38325;DHT22;24126;52.672;13.622;2024-01-25T04:10:26;12.10;69.20
38325;DHT22;24126;52.672;13.622;2024-01-25T04:12:53;12.10;69.10
38325;DHT22;24126;52.672;13.622;2024-01-25T04:15:21;12.10;69.10
38325;DHT22;24126;52.672;13.622;2024-01-25T04:17:48;12.10;69.00
38325;DHT22;24126;52.672;13.622;2024-01-25T04:20:15;12.10;68.90
38325;DHT22;24126;52.672;13.622;2024-01-25T04:22:42;12.10;69.00
38325;DHT22;24126;52.672;13.622;2024-01-25T04:25:09;12.10;69.00
38325;DHT22;24126;52.672;13.622;2024-01-25T04:27:37;12.10;68.90
38325;DHT22;24126;52.672;13.622;2024-01-25T04:30:05;12.10;69.00
38325;DHT22;24126;52.672;13.622;2024-01-25T04:32:32;12.10;68.90
38325;DHT22;24126;52.672;13.622;2024-01-25T04:34:59;12.10;68.80
38325;DHT22;24126;52.672;13.622;2024-01-25T04:37:27;12.10;68.80
38325;DHT22;24126;52.672;13.622;2024-01-25T04:39:54;12.10;68.70
38325;DHT22;24126;52.672;13.622;2024-01-25T04:42:21;12.10;68.80
38325;DHT22;24126;52.672;13.622;2024-01-25T04:44:48;12.10;68.90
38325;DHT22;24126;52.672;13.622;2024-01-25T04:47:15;12.10;68.90
38325;DHT22;24126;52.672;13.622;2024-01-25T04:49:42;12.10;69.00
38325;DHT22;24126;52.672;13.622;2024-01-25T04:52:09;12.00;69.00
38325;DHT22;24126;52.672;13.622;2024-01-25T04:54:37;12.10;69.00
38325;DHT22;24126;52.672;13.622;2024-01-25T04:57:04;12.10;69.00
38325;DHT22;24126;52.672;13.622;2024-01-25T04:59:32;12.10;69.10
38325;DHT22;24126;52.672;13.622;2024-01-25T05:02:00;12.00;69.00
38325;DHT22;24126;52.672;13.622;2024-01-25T05:04:28;12.00;69.10
38325;DHT22;24126;52.672;13.622;2024-01-25T05:06:57;12.00;69.80
38325;DHT22;24126;52.672;13.622;2024-01-25T05:09:24;12.00;69.00
38325;DHT22;24126;52.672;13.622;2024-01-25T05:11:51;12.00;68.90
38325;DHT22;24126;52.672;13.622;2024-01-25T05:14:24;12.00;68.70
38325;DHT22;24126;52.672;13.622;2024-01-25T05:16:52;12.00;68.60
38325;DHT22;24126;52.672;13.622;2024-01-25T05:19:19;12.00;68.50
38325;DHT22;24126;52.672;13.622;2024-01-25T05:21:46;12.00;68.30
38325;DHT22;24126;52.672;13.622;2024-01-25T05:24:13;12.00;68.30
38325;DHT22;24126;52.672;13.622;2024-01-25T05:26:40;12.00;68.30
38325;DHT22;24126;52.672;13.622;2024-01-25T05:29:07;12.00;68.20
38325;DHT22;24126;52.672;13.622;2024-01-25T05:31:34;12.00;68.20
38325;DHT22;24126;52.672;13.622;2024-01-25T05:34:05;12.00;68.20
38325;DHT22;24126;52.672;13.622;2024-01-25T05:36:32;12.10;68.00
38325;DHT22;24126;52.672;13.622;2024-01-25T05:41:32;12.00;67.90
38325;DHT22;24126;52.672;13.622;2024-01-25T05:43:59;12.10;67.80
38325;DHT22;24126;52.672;13.622;2024-01-25T05:46:31;12.10;68.10
38325;DHT22;24126;52.672;13.622;2024-01-25T05:51:37;12.10;67.70
38325;DHT22;24126;52.672;13.622;2024-01-25T05:54:04;12.10;67.50
38325;DHT22;24126;52.672;13.622;2024-01-25T05:56:32;12.10;67.50
38325;DHT22;24126;52.672;13.622;2024-01-25T05:58:59;12.10;67.50
38325;DHT22;24126;52.672;13.622;2024-01-25T06:01:27;12.10;67.50
38325;DHT22;24126;52.672;13.622;2024-01-25T06:03:55;12.10;67.40
38325;DHT22;24126;52.672;13.622;2024-01-25T06:06:22;12.10;67.40
38325;DHT22;24126;52.672;13.622;2024-01-25T06:08:49;12.10;67.40
38325;DHT22;24126;52.672;13.622;2024-01-25T06:11:16;12.10;67.40
38325;DHT22;24126;52.672;13.622;2024-01-25T06:13:43;12.00;67.30
38325;DHT22;24126;52.672;13.622;2024-01-25T06:16:13;12.10;67.30
38325;DHT22;24126;52.672;13.622;2024-01-25T06:18:41;12.10;67.30
38325;DHT22;24126;52.672;13.622;2024-01-25T06:21:09;12.10;67.40
38325;DHT22;24126;52.672;13.622;2024-01-25T06:23:36;12.10;67.40
38325;DHT22;24126;52.672;13.622;2024-01-25T06:26:04;12.10;67.30
38325;DHT22;24126;52.672;13.622;2024-01-25T06:28:34;12.10;67.10
38325;DHT22;24126;52.672;13.622;2024-01-25T06:31:01;12.10;67.10
38325;DHT22;24126;52.672;13.622;2024-01-25T06:33:28;12.10;67.20
38325;DHT22;24126;52.672;13.622;2024-01-25T06:35:56;12.10;67.20
38325;DHT22;24126;52.672;13.622;2024-01-25T06:38:23;12.00;67.20
38325;DHT22;24126;52.672;13.622;2024-01-25T06:40:50;12.00;67.50
38325;DHT22;24126;52.672;13.622;2024-01-25T06:43:17;12.00;67.10
38325;DHT22;24126;52.672;13.622;2024-01-25T06:45:45;12.10;67.20
38325;DHT22;24126;52.672;13.622;2024-01-25T06:48:13;12.00;67.10
38325;DHT22;24126;52.672;13.622;2024-01-25T06:50:40;12.10;67.20
38325;DHT22;24126;52.672;13.622;2024-01-25T06:53:08;12.10;67.20
38325;DHT22;24126;52.672;13.622;2024-01-25T06:55:36;12.10;67.10
38325;DHT22;24126;52.672;13.622;2024-01-25T06:58:03;12.10;67.00
38325;DHT22;24126;52.672;13.622;2024-01-25T07:00:30;12.10;67.10
38325;DHT22;24126;52.672;13.622;2024-01-25T07:02:58;12.00;67.00
38325;DHT22;24126;52.672;13.622;2024-01-25T07:05:25;12.10;67.00
38325;DHT22;24126;52.672;13.622;2024-01-25T07:07:52;12.10;67.10
38325;DHT22;24126;52.672;13.622;2024-01-25T07:10:19;12.10;67.00
38325;DHT22;24126;52.672;13.622;2024-01-25T07:12:47;12.10;67.00
38325;DHT22;24126;52.672;13.622;2024-01-25T07:15:14;12.00;67.00
38325;DHT22;24126;52.672;13.622;2024-01-25T07:17:42;12.10;67.10
38325;DHT22;24126;52.672;13.622;2024-01-25T07:20:09;12.00;67.00
38325;DHT22;24126;52.672;13.622;2024-01-25T07:22:37;12.00;66.90
38325;DHT22;24126;52.672;13.622;2024-01-25T07:25:04;12.00;66.90
38325;DHT22;24126;52.672;13.622;2024-01-25T07:27:31;12.10;66.80
38325;DHT22;24126;52.672;13.622;2024-01-25T07:32:31;12.10;66.80
38325;DHT22;24126;52.672;13.622;2024-01-25T07:35:00;12.10;66.80
38325;DHT22;24126;52.672;13.622;2024-01-25T07:37:27;12.10;66.70
38325;DHT22;24126;52.672;13.622;2024-01-25T07:39:55;12.10;66.80
38325;DHT22;24126;52.672;13.622;2024-01-25T07:42:23;12.10;66.80
38325;DHT22;24126;52.672;13.622;2024-01-25T07:44:50;12.10;67.20
38325;DHT22;24126;52.672;13.622;2024-01-25T07:47:17;12.10;66.80
38325;DHT22;24126;52.672;13.622;2024-01-25T07:49:44;12.10;66.80
38325;DHT22;24126;52.672;13.622;2024-01-25T07:52:11;12.10;66.80
38325;DHT22;24126;52.672;13.622;2024-01-25T07:54:39;12.10;66.80
38325;DHT22;24126;52.672;13.622;2024-01-25T07:57:06;12.10;66.80
38325;DHT22;24126;52.672;13.622;2024-01-25T07:59:33;12.10;66.90
38325;DHT22;24126;52.672;13.622;2024-01-25T08:02:02;12.10;67.00
38325;DHT22;24126;52.672;13.622;2024-01-25T08:04:29;12.10;67.00
38325;DHT22;24126;52.672;13.622;2024-01-25T08:06:59;12.10;66.90
38325;DHT22;24126;52.672;13.622;2024-01-25T08:09:26;12.10;67.00
38325;DHT22;24126;52.672;13.622;2024-01-25T08:11:53;12.10;67.00
38325;DHT22;24126;52.672;13.622;2024-01-25T08:16:51;12.10;67.00
38325;DHT22;24126;52.672;13.622;2024-01-25T08:19:21;12.10;67.10
38325;DHT22;24126;52.672;13.622;2024-01-25T08:21:48;12.10;67.20
38325;DHT22;24126;52.672;13.622;2024-01-25T08:26:53;12.10;67.20
38325;DHT22;24126;52.672;13.622;2024-01-25T08:29:21;12.10;67.20
38325;DHT22;24126;52.672;13.622;2024-01-25T08:31:48;12.10;67.20
38325;DHT22;24126;52.672;13.622;2024-01-25T08:34:17;12.10;67.30
38325;DHT22;24126;52.672;13.622;2024-01-25T08:36:45;12.20;67.30
38325;DHT22;24126;52.672;13.622;2024-01-25T08:39:14;12.10;67.30
38325;DHT22;24126;52.672;13.622;2024-01-25T08:41:41;12.10;67.40
38325;DHT22;24126;52.672;13.622;2024-01-25T08:44:11;12.20;67.40
38325;DHT22;24126;52.672;13.622;2024-01-25T08:46:38;12.20;67.30
38325;DHT22;24126;52.672;13.622;2024-01-25T08:49:05;12.20;67.30
38325;DHT22;24126;52.672;13.622;2024-01-25T08:51:35;12.20;67.30
38325;DHT22;24126;52.672;13.622;2024-01-25T08:54:05;12.20;67.30
38325;DHT22;24126;52.672;13.622;2024-01-25T08:56:32;12.20;67.30
38325;DHT22;24126;52.672;13.622;2024-01-25T08:59:01;12.20;67.30
38325;DHT22;24126;52.672;13.622;2024-01-25T09:01:29;12.20;67.30
38325;DHT22;24126;52.672;13.622;2024-01-25T09:03:56;12.20;67.20
38325;DHT22;24126;52.672;13.622;2024-01-25T09:06:28;12.20;67.20
38325;DHT22;24126;52.672;13.622;2024-01-25T09:08:56;12.30;67.10
38325;DHT22;24126;52.672;13.622;2024-01-25T09:11:23;12.30;67.10
38325;DHT22;24126;52.672;13.622;2024-01-25T09:13:50;12.30;67.00
38325;DHT22;24126;52.672;13.622;2024-01-25T09:16:20;12.30;66.90
38325;DHT22;24126;52.672;13.622;2024-01-25T09:18:49;12.30;66.90
38325;DHT22;24126;52.672;13.622;2024-01-25T09:21:17;12.30;66.80
38325;DHT22;24126;52.672;13.622;2024-01-25T09:23:52;12.40;66.80
38325;DHT22;24126;52.672;13.622;2024-01-25T09:26:20;12.40;66.80
38325;DHT22;24126;52.672;13.622;2024-01-25T09:31:32;12.40;66.80
38325;DHT22;24126;52.672;13.622;2024-01-25T09:34:03;12.40;66.60
38325;DHT22;24126;52.672;13.622;2024-01-25T09:36:30;12.40;66.70
38325;DHT22;24126;52.672;13.622;2024-01-25T09:39:00;12.40;66.50
38325;DHT22;24126;52.672;13.622;2024-01-25T09:41:30;12.40;66.40
38325;DHT22;24126;52.672;13.622;2024-01-25T09:43:57;12.40;66.50
38325;DHT22;24126;52.672;13.622;2024-01-25T09:46:29;12.40;66.50
38325;DHT22;24126;52.672;13.622;2024-01-25T09:51:36;12.40;66.50
38325;DHT22;24126;52.672;13.622;2024-01-25T09:56:37;12.50;66.50
38325;DHT22;24126;52.672;13.622;2024-01-25T09:59:07;12.60;66.40
38325;DHT22;24126;52.672;13.622;2024-01-25T10:01:35;12.50;66.40
38325;DHT22;24126;52.672;13.622;2024-01-25T10:04:04;12.60;66.10
38325;DHT22;24126;52.672;13.622;2024-01-25T10:06:33;12.60;66.30
38325;DHT22;24126;52.672;13.622;2024-01-25T10:09:04;12.60;66.30
38325;DHT22;24126;52.672;13.622;2024-01-25T10:11:35;12.70;66.20
38325;DHT22;24126;52.672;13.622;2024-01-25T10:14:03;12.70;66.10
38325;DHT22;24126;52.672;13.622;2024-01-25T10:16:30;12.70;65.90
38325;DHT22;24126;52.672;13.622;2024-01-25T10:18:58;12.70;66.00
38325;DHT22;24126;52.672;13.622;2024-01-25T10:21:25;12.80;66.10
38325;DHT22;24126;52.672;13.622;2024-01-25T10:23:53;12.90;65.60
38325;DHT22;24126;52.672;13.622;2024-01-25T10:26:27;12.90;66.30
38325;DHT22;24126;52.672;13.622;2024-01-25T10:28:57;12.90;65.40
38325;DHT22;24126;52.672;13.622;2024-01-25T10:31:27;12.90;65.40
38325;DHT22;24126;52.672;13.622;2024-01-25T10:34:00;12.90;65.50
38325;DHT22;24126;52.672;13.622;2024-01-25T10:36:28;12.90;65.50
38325;DHT22;24126;52.672;13.622;2024-01-25T10:41:49;12.90;65.50
38325;DHT22;24126;52.672;13.622;2024-01-25T10:44:21;12.90;65.30
38325;DHT22;24126;52.672;13.622;2024-01-25T10:46:57;12.90;65.40
38325;DHT22;24126;52.672;13.622;2024-01-25T10:49:50;12.90;65.20
38325;DHT22;24126;52.672;13.622;2024-01-25T10:52:19;12.90;65.30
38325;DHT22;24126;52.672;13.622;2024-01-25T10:54:59;12.90;65.30
38325;DHT22;24126;52.672;13.622;2024-01-25T11:01:47;12.90;65.00
38325;DHT22;24126;52.672;13.622;2024-01-25T11:14:14;13.00;64.70
38325;DHT22;24126;52.672;13.622;2024-01-25T11:20:49;13.10;64.70
38325;DHT22;24126;52.672;13.622;2024-01-25T11:23:24;13.10;64.90
38325;DHT22;24126;52.672;13.622;2024-01-25T11:26:10;13.10;64.70
38325;DHT22;24126;52.672;13.622;2024-01-25T11:28:39;13.10;64.60
38325;DHT22;24126;52.672;13.622;2024-01-25T11:31:27;13.10;64.70
38325;DHT22;24126;52.672;13.622;2024-01-25T11:36:28;13.20;64.40
38325;DHT22;24126;52.672;13.622;2024-01-25T11:38:58;13.20;64.10
38325;DHT22;24126;52.672;13.622;2024-01-25T11:41:26;13.20;63.90
38325;DHT22;24126;52.672;13.622;2024-01-25T11:43:53;13.20;64.10
38325;DHT22;24126;52.672;13.622;2024-01-25T11:46:22;13.20;63.90
38325;DHT22;24126;52.672;13.622;2024-01-25T11:48:49;13.20;64.00
38325;DHT22;24126;52.672;13.622;2024-01-25T11:51:16;13.20;64.20
38325;DHT22;24126;52.672;13.622;2024-01-25T11:53:43;13.20;64.10
38325;DHT22;24126;52.672;13.622;2024-01-25T11:56:12;13.30;63.90
38325;DHT22;24126;52.672;13.622;2024-01-25T11:58:40;13.30;63.80
38325;DHT22;24126;52.672;13.622;2024-01-25T12:01:08;13.30;63.70
38325;DHT22;24126;52.672;13.622;2024-01-25T12:03:37;13.40;63.80
38325;DHT22;24126;52.672;13.622;2024-01-25T12:06:05;13.40;63.70
38325;DHT22;24126;52.672;13.622;2024-01-25T12:08:35;13.50;63.50
38325;DHT22;24126;52.672;13.622;2024-01-25T12:11:05;13.60;63.40
38325;DHT22;24126;52.672;13.622;2024-01-25T12:13:34;13.70;62.80
38325;DHT22;24126;52.672;13.622;2024-01-25T12:16:05;13.70;62.50
38325;DHT22;24126;52.672;13.622;2024-01-25T12:18:33;13.70;62.70
38325;DHT22;24126;52.672;13.622;2024-01-25T12:21:04;13.70;62.70
38325;DHT22;24126;52.672;13.622;2024-01-25T12:23:46;13.70;62.80
38325;DHT22;24126;52.672;13.622;2024-01-25T12:26:13;13.70;62.60
38325;DHT22;24126;52.672;13.622;2024-01-25T12:28:43;13.70;62.70
38325;DHT22;24126;52.672;13.622;2024-01-25T12:31:11;13.80;62.80
38325;DHT22;24126;52.672;13.622;2024-01-25T12:33:41;13.80;62.50
38325;DHT22;24126;52.672;13.622;2024-01-25T12:36:09;13.90;62.20
38325;DHT22;24126;52.672;13.622;2024-01-25T12:38:36;13.90;62.10
38325;DHT22;24126;52.672;13.622;2024-01-25T12:41:06;13.90;62.10
38325;DHT22;24126;52.672;13.622;2024-01-25T12:43:33;14.00;62.00
38325;DHT22;24126;52.672;13.622;2024-01-25T12:46:00;14.00;61.80
38325;DHT22;24126;52.672;13.622;2024-01-25T12:48:27;14.00;61.80
38325;DHT22;24126;52.672;13.622;2024-01-25T12:50:54;13.90;61.50
38325;DHT22;24126;52.672;13.622;2024-01-25T12:53:21;14.00;61.40
38325;DHT22;24126;52.672;13.622;2024-01-25T12:55:48;13.90;61.50
38325;DHT22;24126;52.672;13.622;2024-01-25T12:58:16;13.90;61.20
38325;DHT22;24126;52.672;13.622;2024-01-25T13:00:45;13.80;61.50
38325;DHT22;24126;52.672;13.622;2024-01-25T13:03:12;13.80;61.70
38325;DHT22;24126;52.672;13.622;2024-01-25T13:05:39;13.90;61.40
38325;DHT22;24126;52.672;13.622;2024-01-25T13:08:06;13.90;61.30
38325;DHT22;24126;52.672;13.622;2024-01-25T13:10:34;13.90;61.30
38325;DHT22;24126;52.672;13.622;2024-01-25T13:13:01;13.80;61.20
38325;DHT22;24126;52.672;13.622;2024-01-25T13:15:28;13.80;61.30
38325;DHT22;24126;52.672;13.622;2024-01-25T13:17:56;13.80;61.40
38325;DHT22;24126;52.672;13.622;2024-01-25T13:20:24;13.80;61.70
38325;DHT22;24126;52.672;13.622;2024-01-25T13:22:52;13.80;61.60
38325;DHT22;24126;52.672;13.622;2024-01-25T13:25:20;13.90;61.50
38325;DHT22;24126;52.672;13.622;2024-01-25T13:27:47;13.90;61.40
38325;DHT22;24126;52.672;13.622;2024-01-25T13:30:15;13.90;61.40
38325;DHT22;24126;52.672;13.622;2024-01-25T13:32:43;13.90;61.40
38325;DHT22;24126;52.672;13.622;2024-01-25T13:35:11;13.90;61.20
38325;DHT22;24126;52.672;13.622;2024-01-25T13:37:39;13.90;61.50
38325;DHT22;24126;52.672;13.622;2024-01-25T13:40:07;13.90;61.50
38325;DHT22;24126;52.672;13.622;2024-01-25T13:42:35;13.90;61.70
38325;DHT22;24126;52.672;13.622;2024-01-25T13:45:02;13.90;61.50
38325;DHT22;24126;52.672;13.622;2024-01-25T13:47:31;14.00;61.60
38325;DHT22;24126;52.672;13.622;2024-01-25T13:49:59;13.90;61.60
38325;DHT22;24126;52.672;13.622;2024-01-25T13:52:29;13.90;61.60
38325;DHT22;24126;52.672;13.622;2024-01-25T13:54:57;13.90;61.50
38325;DHT22;24126;52.672;13.622;2024-01-25T13:57:24;13.90;61.40
38325;DHT22;24126;52.672;13.622;2024-01-25T13:59:51;13.90;61.50
38325;DHT22;24126;52.672;13.622;2024-01-25T14:02:19;13.90;61.60
38325;DHT22;24126;52.672;13.622;2024-01-25T14:04:46;13.90;61.50
38325;DHT22;24126;52.672;13.622;2024-01-25T14:07:15;13.90;61.40
38325;DHT22;24126;52.672;13.622;2024-01-25T14:09:42;13.90;61.00
38325;DHT22;24126;52.672;13.622;2024-01-25T14:12:10;13.80;61.10
38325;DHT22;24126;52.672;13.622;2024-01-25T14:14:37;13.80;61.10
38325;DHT22;24126;52.672;13.622;2024-01-25T14:17:07;13.70;61.10
38325;DHT22;24126;52.672;13.622;2024-01-25T14:19:35;13.70;61.10
38325;DHT22;24126;52.672;13.622;2024-01-25T14:22:04;13.70;61.20
38325;DHT22;24126;52.672;13.622;2024-01-25T14:24:31;13.70;61.30
38325;DHT22;24126;52.672;13.622;2024-01-25T14:26:58;13.60;61.30
38325;DHT22;24126;52.672;13.622;2024-01-25T14:29:25;13.60;61.40
38325;DHT22;24126;52.672;13.622;2024-01-25T14:31:56;13.60;61.70
38325;DHT22;24126;52.672;13.622;2024-01-25T14:34:24;13.50;61.90
38325;DHT22;24126;52.672;13.622;2024-01-25T14:36:51;13.50;62.20
38325;DHT22;24126;52.672;13.622;2024-01-25T14:39:20;13.50;62.40
38325;DHT22;24126;52.672;13.622;2024-01-25T14:41:47;13.40;62.50
38325;DHT22;24126;52.672;13.622;2024-01-25T14:44:15;13.40;62.70
38325;DHT22;24126;52.672;13.622;2024-01-25T14:46:43;13.30;62.80
38325;DHT22;24126;52.672;13.622;2024-01-25T14:49:10;13.30;63.10
38325;DHT22;24126;52.672;13.622;2024-01-25T14:51:37;13.30;63.20
38325;DHT22;24126;52.672;13.622;2024-01-25T14:54:04;13.20;63.20
38325;DHT22;24126;52.672;13.622;2024-01-25T14:56:31;13.20;63.30
38325;DHT22;24126;52.672;13.622;2024-01-25T14:58:58;13.20;63.30
38325;DHT22;24126;52.672;13.622;2024-01-25T15:01:26;13.20;63.40
38325;DHT22;24126;52.672;13.622;2024-01-25T15:03:56;13.10;63.40
38325;DHT22;24126;52.672;13.622;2024-01-25T15:06:23;13.10;63.30
38325;DHT22;24126;52.672;13.622;2024-01-25T15:08:50;13.10;63.30
38325;DHT22;24126;52.672;13.622;2024-01-25T15:11:18;13.00;63.40
38325;DHT22;24126;52.672;13.622;2024-01-25T15:13:45;13.00;63.50
38325;DHT22;24126;52.672;13.622;2024-01-25T15:16:14;13.00;63.60
38325;DHT22;24126;52.672;13.622;2024-01-25T15:18:41;12.90;63.70
38325;DHT22;24126;52.672;13.622;2024-01-25T15:21:08;12.90;63.70
38325;DHT22;24126;52.672;13.622;2024-01-25T15:23:36;12.90;63.80
38325;DHT22;24126;52.672;13.622;2024-01-25T15:26:03;12.80;64.00
38325;DHT22;24126;52.672;13.622;2024-01-25T15:28:32;12.80;64.20
38325;DHT22;24126;52.672;13.622;2024-01-25T15:31:00;12.80;64.30
38325;DHT22;24126;52.672;13.622;2024-01-25T15:33:29;12.70;64.40
38325;DHT22;24126;52.672;13.622;2024-01-25T15:35:56;12.70;64.50
38325;DHT22;24126;52.672;13.622;2024-01-25T15:38:23;12.70;64.60
38325;DHT22;24126;52.672;13.622;2024-01-25T15:40:51;12.70;64.70
38325;DHT22;24126;52.672;13.622;2024-01-25T15:43:18;12.70;64.70
38325;DHT22;24126;52.672;13.622;2024-01-25T15:45:46;12.70;64.80
38325;DHT22;24126;52.672;13.622;2024-01-25T15:48:13;12.60;64.80
38325;DHT22;24126;52.672;13.622;2024-01-25T15:50:40;12.60;64.90
38325;DHT22;24126;52.672;13.622;2024-01-25T15:53:07;12.60;64.90
38325;DHT22;24126;52.672;13.622;2024-01-25T15:55:34;12.60;64.80
38325;DHT22;24126;52.672;13.622;2024-01-25T15:58:01;12.60;64.90
38325;DHT22;24126;52.672;13.622;2024-01-25T16:00:29;12.60;64.80
38325;DHT22;24126;52.672;13.622;2024-01-25T16:02:56;12.50;64.90
38325;DHT22;24126;52.672;13.622;2024-01-25T16:05:23;12.60;64.90